sensor_id;sensor_type;location;lat;lon;timestamp;pressure;altitude;pressure_sealevel;temperature;humidity
57594;BME280;43423;46.510;6.686;2023-09-30T00:01:10;97244.97;;;19.22;69.08
57594;BME280;43423;46.510;6.686;2023-09-30T00:03:37;97241.81;;;19.37;68.58
57594;BME280;43423;46.510;6.686;2023-09-30T00:06:03;97250.91;;;19.43;68.30
57594;BME280;43423;46.510;6.686;2023-09-30T00:08:29;97240.09;;;19.29;69.15
57594;BME280;43423;46.510;6.686;2023-09-30T00:10:55;97239.63;;;19.24;69.70
57594;BME280;43423;46.510;6.686;2023-09-30T00:13:20;97244.16;;;19.28;70.04
57594;BME280;43423;46.510;6.686;2023-09-30T00:15:47;97224.13;;;19.29;70.06
57594;BME280;43423;46.510;6.686;2023-09-30T00:18:12;97232.22;;;19.27;70.33
57594;BME280;43423;46.510;6.686;2023-09-30T00:20:39;97224.88;;;19.30;70.49
57594;BME280;43423;46.510;6.686;2023-09-30T00:23:05;97228.47;;;19.24;71.46
57594;BME280;43423;46.510;6.686;2023-09-30T00:25:32;97232.13;;;19.08;71.62
57594;BME280;43423;46.510;6.686;2023-09-30T00:27:58;97213.13;;;19.07;72.87
57594;BME280;43423;46.510;6.686;2023-09-30T00:30:24;97208.09;;;19.05;72.99
57594;BME280;43423;46.510;6.686;2023-09-30T00:32:49;97212.94;;;18.99;74.24
57594;BME280;43423;46.510;6.686;2023-09-30T00:35:15;97213.88;;;19.07;73.53
57594;BME280;43423;46.510;6.686;2023-09-30T00:37:41;97222.28;;;19.02;73.62
57594;BME280;43423;46.510;6.686;2023-09-30T00:40:08;97212.84;;;19.10;71.99
57594;BME280;43423;46.510;6.686;2023-09-30T00:42:38;97228.84;;;19.40;71.27
57594;BME280;43423;46.510;6.686;2023-09-30T00:45:04;97217.25;;;19.36;71.43
57594;BME280;43423;46.510;6.686;2023-09-30T00:47:31;97226.78;;;19.46;70.40
57594;BME280;43423;46.510;6.686;2023-09-30T00:49:57;97220.72;;;19.42;70.47
57594;BME280;43423;46.510;6.686;2023-09-30T00:52:22;97220.09;;;19.24;71.12
57594;BME280;43423;46.510;6.686;2023-09-30T00:54:49;97238.75;;;19.05;73.69
57594;BME280;43423;46.510;6.686;2023-09-30T00:57:16;97236.09;;;19.18;70.74
57594;BME280;43423;46.510;6.686;2023-09-30T00:59:44;97232.72;;;19.31;69.62
57594;BME280;43423;46.510;6.686;2023-09-30T01:02:09;97229.16;;;19.36;69.44
57594;BME280;43423;46.510;6.686;2023-09-30T01:04:36;97239.53;;;19.36;69.65
57594;BME280;43423;46.510;6.686;2023-09-30T01:07:02;97232.72;;;19.31;69.56
57594;BME280;43423;46.510;6.686;2023-09-30T01:09:27;97231.63;;;19.40;69.24
57594;BME280;43423;46.510;6.686;2023-09-30T01:11:53;97228.94;;;19.29;69.91
57594;BME280;43423;46.510;6.686;2023-09-30T01:14:29;97238.25;;;19.37;69.30
57594;BME280;43423;46.510;6.686;2023-09-30T01:16:55;97237.19;;;19.45;69.71
57594;BME280;43423;46.510;6.686;2023-09-30T01:19:22;97245.03;;;19.47;69.45
57594;BME280;43423;46.510;6.686;2023-09-30T01:21:56;97240.00;;;19.40;69.97
57594;BME280;43423;46.510;6.686;2023-09-30T01:24:28;97231.22;;;19.30;70.97
57594;BME280;43423;46.510;6.686;2023-09-30T01:26:54;97233.72;;;19.34;70.95
57594;BME280;43423;46.510;6.686;2023-09-30T01:29:20;97227.16;;;19.31;70.76
57594;BME280;43423;46.510;6.686;2023-09-30T01:31:46;97233.19;;;19.35;71.17
57594;BME280;43423;46.510;6.686;2023-09-30T01:34:15;97227.91;;;19.32;70.71
57594;BME280;43423;46.510;6.686;2023-09-30T01:36:44;97222.88;;;19.24;71.24
57594;BME280;43423;46.510;6.686;2023-09-30T01:39:10;97219.53;;;19.32;70.74
57594;BME280;43423;46.510;6.686;2023-09-30T01:41:37;97225.66;;;19.24;70.75
57594;BME280;43423;46.510;6.686;2023-09-30T01:44:03;97215.00;;;19.29;70.91
57594;BME280;43423;46.510;6.686;2023-09-30T01:46:29;97229.41;;;19.33;70.88
57594;BME280;43423;46.510;6.686;2023-09-30T01:48:55;97226.66;;;19.27;71.17
57594;BME280;43423;46.510;6.686;2023-09-30T01:51:20;97218.34;;;19.21;70.62
57594;BME280;43423;46.510;6.686;2023-09-30T01:53:47;97221.69;;;19.14;71.13
57594;BME280;43423;46.510;6.686;2023-09-30T01:56:13;97215.31;;;19.19;70.55
57594;BME280;43423;46.510;6.686;2023-09-30T01:58:39;97218.34;;;19.21;70.45
57594;BME280;43423;46.510;6.686;2023-09-30T02:01:04;97218.16;;;19.14;70.61
57594;BME280;43423;46.510;6.686;2023-09-30T02:03:30;97220.03;;;19.00;71.88
57594;BME280;43423;46.510;6.686;2023-09-30T02:05:59;97214.41;;;19.06;71.72
57594;BME280;43423;46.510;6.686;2023-09-30T02:08:24;97212.94;;;18.99;71.67
57594;BME280;43423;46.510;6.686;2023-09-30T02:10:50;97220.25;;;19.02;71.58
57594;BME280;43423;46.510;6.686;2023-09-30T02:13:19;97215.28;;;18.89;72.46
57594;BME280;43423;46.510;6.686;2023-09-30T02:15:45;97218.31;;;18.91;72.25
57594;BME280;43423;46.510;6.686;2023-09-30T02:18:11;97206.88;;;18.95;72.02
57594;BME280;43423;46.510;6.686;2023-09-30T02:20:37;97221.31;;;18.93;72.10
57594;BME280;43423;46.510;6.686;2023-09-30T02:23:09;97218.97;;;19.03;71.51
57594;BME280;43423;46.510;6.686;2023-09-30T02:25:39;97212.84;;;19.10;71.27
57594;BME280;43423;46.510;6.686;2023-09-30T02:28:06;97212.97;;;18.93;71.86
57594;BME280;43423;46.510;6.686;2023-09-30T02:30:32;97201.75;;;19.05;70.95
57594;BME280;43423;46.510;6.686;2023-09-30T02:32:58;97202.25;;;19.03;70.64
57594;BME280;43423;46.510;6.686;2023-09-30T02:35:23;97191.91;;;18.98;70.70
57594;BME280;43423;46.510;6.686;2023-09-30T02:37:49;97199.31;;;18.90;70.78
57594;BME280;43423;46.510;6.686;2023-09-30T02:40:15;97190.97;;;18.90;70.97
57594;BME280;43423;46.510;6.686;2023-09-30T02:42:42;97192.28;;;18.78;71.81
57594;BME280;43423;46.510;6.686;2023-09-30T02:45:09;97189.19;;;18.87;71.50
57594;BME280;43423;46.510;6.686;2023-09-30T02:47:36;97199.63;;;18.81;71.93
57594;BME280;43423;46.510;6.686;2023-09-30T02:50:04;97184.16;;;18.80;71.94
57594;BME280;43423;46.510;6.686;2023-09-30T02:52:30;97183.69;;;18.76;72.10
57594;BME280;43423;46.510;6.686;2023-09-30T02:54:56;97183.97;;;18.72;72.37
57594;BME280;43423;46.510;6.686;2023-09-30T02:57:23;97176.94;;;18.65;73.00
57594;BME280;43423;46.510;6.686;2023-09-30T02:59:48;97178.97;;;18.54;72.99
57594;BME280;43423;46.510;6.686;2023-09-30T03:02:14;97180.03;;;18.45;74.14
57594;BME280;43423;46.510;6.686;2023-09-30T03:04:41;97187.78;;;18.63;73.02
57594;BME280;43423;46.510;6.686;2023-09-30T03:07:08;97190.06;;;18.65;72.45
57594;BME280;43423;46.510;6.686;2023-09-30T03:09:34;97190.84;;;18.65;72.29
57594;BME280;43423;46.510;6.686;2023-09-30T03:12:00;97176.38;;;18.73;71.45
57594;BME280;43423;46.510;6.686;2023-09-30T03:14:25;97176.63;;;18.75;71.27
57594;BME280;43423;46.510;6.686;2023-09-30T03:16:51;97174.91;;;18.60;72.03
57594;BME280;43423;46.510;6.686;2023-09-30T03:19:17;97185.31;;;18.54;73.07
57594;BME280;43423;46.510;6.686;2023-09-30T03:21:43;97186.88;;;18.50;72.84
57594;BME280;43423;46.510;6.686;2023-09-30T03:24:09;97188.63;;;18.47;73.23
57594;BME280;43423;46.510;6.686;2023-09-30T03:26:35;97171.44;;;18.49;72.86
57594;BME280;43423;46.510;6.686;2023-09-30T03:29:01;97170.72;;;18.31;74.43
57594;BME280;43423;46.510;6.686;2023-09-30T03:31:27;97176.34;;;18.26;74.82
57594;BME280;43423;46.510;6.686;2023-09-30T03:33:53;97190.25;;;18.26;74.69
57594;BME280;43423;46.510;6.686;2023-09-30T03:36:23;97187.44;;;18.31;73.47
57594;BME280;43423;46.510;6.686;2023-09-30T03:38:52;97188.75;;;18.25;73.52
57594;BME280;43423;46.510;6.686;2023-09-30T03:41:21;97186.22;;;18.27;72.78
57594;BME280;43423;46.510;6.686;2023-09-30T03:43:46;97190.00;;;18.24;73.12
57594;BME280;43423;46.510;6.686;2023-09-30T03:46:15;97191.78;;;18.21;73.24
57594;BME280;43423;46.510;6.686;2023-09-30T03:48:41;97182.19;;;18.17;72.82
57594;BME280;43423;46.510;6.686;2023-09-30T03:51:09;97182.16;;;18.22;73.30
57594;BME280;43423;46.510;6.686;2023-09-30T03:53:42;97182.19;;;18.17;73.26
57594;BME280;43423;46.510;6.686;2023-09-30T03:56:08;97187.75;;;18.17;73.73
57594;BME280;43423;46.510;6.686;2023-09-30T03:58:40;97202.69;;;18.13;73.49
57594;BME280;43423;46.510;6.686;2023-09-30T04:01:07;97198.16;;;18.10;73.44
57594;BME280;43423;46.510;6.686;2023-09-30T04:03:39;97200.44;;;18.12;72.31
57594;BME280;43423;46.510;6.686;2023-09-30T04:06:05;97204.44;;;18.17;71.09
57594;BME280;43423;46.510;6.686;2023-09-30T04:08:32;97181.94;;;18.14;70.58
57594;BME280;43423;46.510;6.686;2023-09-30T04:10:59;97183.72;;;18.18;70.82
57594;BME280;43423;46.510;6.686;2023-09-30T04:13:26;97187.72;;;18.22;70.64
57594;BME280;43423;46.510;6.686;2023-09-30T04:15:52;97188.78;;;18.19;70.61
57594;BME280;43423;46.510;6.686;2023-09-30T04:18:17;97183.19;;;18.19;70.37
57594;BME280;43423;46.510;6.686;2023-09-30T04:20:46;97174.16;;;18.02;71.71
57594;BME280;43423;46.510;6.686;2023-09-30T04:23:12;97173.63;;;18.09;71.18
57594;BME280;43423;46.510;6.686;2023-09-30T04:25:39;97170.06;;;18.08;71.74
57594;BME280;43423;46.510;6.686;2023-09-30T04:28:05;97178.91;;;18.12;72.12
57594;BME280;43423;46.510;6.686;2023-09-30T04:30:31;97192.84;;;18.07;71.96
57594;BME280;43423;46.510;6.686;2023-09-30T04:32:59;97188.78;;;18.13;70.94
57594;BME280;43423;46.510;6.686;2023-09-30T04:35:24;97187.78;;;18.11;71.23
57594;BME280;43423;46.510;6.686;2023-09-30T04:37:50;97183.22;;;18.13;71.40
57594;BME280;43423;46.510;6.686;2023-09-30T04:40:17;97177.41;;;18.11;72.11
57594;BME280;43423;46.510;6.686;2023-09-30T04:42:45;97187.03;;;18.10;71.40
57594;BME280;43423;46.510;6.686;2023-09-30T04:45:13;97198.91;;;18.11;71.65
57594;BME280;43423;46.510;6.686;2023-09-30T04:47:42;97190.81;;;18.07;71.20
57594;BME280;43423;46.510;6.686;2023-09-30T04:50:10;97193.38;;;18.00;70.65
57594;BME280;43423;46.510;6.686;2023-09-30T04:52:37;97199.16;;;18.07;71.41
57594;BME280;43423;46.510;6.686;2023-09-30T04:55:04;97197.91;;;18.08;70.28
57594;BME280;43423;46.510;6.686;2023-09-30T04:57:30;97201.69;;;18.11;68.67
57594;BME280;43423;46.510;6.686;2023-09-30T04:59:57;97201.94;;;18.13;68.15
57594;BME280;43423;46.510;6.686;2023-09-30T05:02:24;97205.25;;;18.11;67.51
57594;BME280;43423;46.510;6.686;2023-09-30T05:04:50;97213.84;;;18.13;66.51
57594;BME280;43423;46.510;6.686;2023-09-30T05:07:16;97210.28;;;18.19;64.62
57594;BME280;43423;46.510;6.686;2023-09-30T05:09:41;97205.25;;;18.11;65.62
57594;BME280;43423;46.510;6.686;2023-09-30T05:12:08;97216.91;;;18.04;64.94
57594;BME280;43423;46.510;6.686;2023-09-30T05:14:35;97222.69;;;18.06;64.29
57594;BME280;43423;46.510;6.686;2023-09-30T05:17:02;97222.69;;;18.06;63.76
57594;BME280;43423;46.510;6.686;2023-09-30T05:19:30;97226.75;;;18.05;63.57
57594;BME280;43423;46.510;6.686;2023-09-30T05:21:57;97221.94;;;18.06;63.19
57594;BME280;43423;46.510;6.686;2023-09-30T05:24:23;97223.22;;;18.10;62.81
57594;BME280;43423;46.510;6.686;2023-09-30T05:26:48;97222.41;;;18.16;63.54
57594;BME280;43423;46.510;6.686;2023-09-30T05:29:14;97235.56;;;18.21;63.60
57594;BME280;43423;46.510;6.686;2023-09-30T05:31:39;97225.97;;;18.16;63.32
57594;BME280;43423;46.510;6.686;2023-09-30T05:34:05;97236.84;;;18.14;62.85
57594;BME280;43423;46.510;6.686;2023-09-30T05:36:31;97235.81;;;18.23;61.26
57594;BME280;43423;46.510;6.686;2023-09-30T05:38:57;97246.97;;;18.17;61.10
57594;BME280;43423;46.510;6.686;2023-09-30T05:41:22;97242.94;;;18.18;60.74
57594;BME280;43423;46.510;6.686;2023-09-30T05:43:48;97236.59;;;18.18;60.49
57594;BME280;43423;46.510;6.686;2023-09-30T05:46:15;97235.81;;;18.23;60.38
57594;BME280;43423;46.510;6.686;2023-09-30T05:48:41;97239.34;;;18.23;61.22
57594;BME280;43423;46.510;6.686;2023-09-30T05:51:07;97238.59;;;18.23;61.25
57594;BME280;43423;46.510;6.686;2023-09-30T05:53:33;97244.09;;;18.45;59.86
57594;BME280;43423;46.510;6.686;2023-09-30T05:56:01;97244.38;;;18.41;60.20
57594;BME280;43423;46.510;6.686;2023-09-30T05:58:27;97249.19;;;18.30;62.42
57594;BME280;43423;46.510;6.686;2023-09-30T06:00:52;97244.16;;;18.28;64.10
57594;BME280;43423;46.510;6.686;2023-09-30T06:03:19;97239.56;;;18.31;64.63
57594;BME280;43423;46.510;6.686;2023-09-30T06:05:46;97233.81;;;18.18;65.42
57594;BME280;43423;46.510;6.686;2023-09-30T06:08:12;97238.53;;;18.39;65.42
57594;BME280;43423;46.510;6.686;2023-09-30T06:10:41;97242.03;;;18.51;65.17
57594;BME280;43423;46.510;6.686;2023-09-30T06:13:09;97234.97;;;18.50;66.11
57594;BME280;43423;46.510;6.686;2023-09-30T06:15:40;97247.38;;;18.44;68.11
57594;BME280;43423;46.510;6.686;2023-09-30T06:18:06;97240.53;;;18.50;67.69
57594;BME280;43423;46.510;6.686;2023-09-30T06:20:32;97243.50;;;18.63;67.62
57594;BME280;43423;46.510;6.686;2023-09-30T06:22:59;97233.88;;;18.64;68.08
57594;BME280;43423;46.510;6.686;2023-09-30T06:25:25;97238.97;;;18.60;68.77
57594;BME280;43423;46.510;6.686;2023-09-30T06:27:53;97237.25;;;18.46;69.08
57594;BME280;43423;46.510;6.686;2023-09-30T06:30:23;97250.63;;;18.53;69.40
57594;BME280;43423;46.510;6.686;2023-09-30T06:32:56;97243.56;;;18.47;69.44
57594;BME280;43423;46.510;6.686;2023-09-30T06:35:22;97249.59;;;18.67;68.19
57594;BME280;43423;46.510;6.686;2023-09-30T06:37:48;97258.97;;;18.64;68.61
57594;BME280;43423;46.510;6.686;2023-09-30T06:40:14;97265.25;;;18.71;68.44
57594;BME280;43423;46.510;6.686;2023-09-30T06:42:40;97276.44;;;18.59;71.38
57594;BME280;43423;46.510;6.686;2023-09-30T06:45:07;97278.72;;;18.66;68.87
57594;BME280;43423;46.510;6.686;2023-09-30T06:47:34;97287.78;;;18.78;68.35
57594;BME280;43423;46.510;6.686;2023-09-30T06:50:04;97287.84;;;18.67;70.02
57594;BME280;43423;46.510;6.686;2023-09-30T06:52:34;97295.69;;;18.57;71.14
57594;BME280;43423;46.510;6.686;2023-09-30T06:55:01;97297.22;;;18.53;71.06
57594;BME280;43423;46.510;6.686;2023-09-30T06:57:27;97304.81;;;18.47;72.20
57594;BME280;43423;46.510;6.686;2023-09-30T06:59:52;97303.88;;;18.33;73.09
57594;BME280;43423;46.510;6.686;2023-09-30T07:02:18;97302.09;;;18.41;72.19
57594;BME280;43423;46.510;6.686;2023-09-30T07:04:44;97300.53;;;18.40;73.05
57594;BME280;43423;46.510;6.686;2023-09-30T07:07:09;97301.78;;;18.50;72.90
57594;BME280;43423;46.510;6.686;2023-09-30T07:09:35;97309.13;;;18.53;71.35
57594;BME280;43423;46.510;6.686;2023-09-30T07:12:01;97310.91;;;18.51;72.17
57594;BME280;43423;46.510;6.686;2023-09-30T07:14:27;97313.41;;;18.54;71.96
57594;BME280;43423;46.510;6.686;2023-09-30T07:16:53;97320.50;;;18.55;72.81
57594;BME280;43423;46.510;6.686;2023-09-30T07:19:18;97309.63;;;18.57;71.01
57594;BME280;43423;46.510;6.686;2023-09-30T07:21:44;97317.72;;;18.55;71.51
57594;BME280;43423;46.510;6.686;2023-09-30T07:24:11;97315.91;;;18.63;70.81
57594;BME280;43423;46.510;6.686;2023-09-30T07:26:37;97314.94;;;18.66;69.24
57594;BME280;43423;46.510;6.686;2023-09-30T07:29:02;97312.16;;;18.66;68.84
57594;BME280;43423;46.510;6.686;2023-09-30T07:31:34;97316.13;;;18.82;68.93
57594;BME280;43423;46.510;6.686;2023-09-30T07:34:00;97317.69;;;18.72;70.43
57594;BME280;43423;46.510;6.686;2023-09-30T07:36:25;97319.22;;;18.73;69.43
57594;BME280;43423;46.510;6.686;2023-09-30T07:38:51;97327.06;;;18.69;71.02
57594;BME280;43423;46.510;6.686;2023-09-30T07:41:18;97323.47;;;18.80;69.16
57594;BME280;43423;46.510;6.686;2023-09-30T07:43:43;97324.19;;;18.91;68.20
57594;BME280;43423;46.510;6.686;2023-09-30T07:46:09;97334.31;;;18.94;67.63
57594;BME280;43423;46.510;6.686;2023-09-30T07:48:34;97315.28;;;19.04;66.91
57594;BME280;43423;46.510;6.686;2023-09-30T07:51:01;97321.84;;;19.07;67.19
57594;BME280;43423;46.510;6.686;2023-09-30T07:53:27;97319.25;;;19.14;66.42
57594;BME280;43423;46.510;6.686;2023-09-30T07:55:53;97325.59;;;19.15;67.65
57594;BME280;43423;46.510;6.686;2023-09-30T07:58:20;97317.41;;;19.28;65.80
57594;BME280;43423;46.510;6.686;2023-09-30T08:00:46;97321.97;;;19.25;67.20
57594;BME280;43423;46.510;6.686;2023-09-30T08:03:11;97318.75;;;19.57;66.36
57594;BME280;43423;46.510;6.686;2023-09-30T08:05:37;97321.53;;;19.57;66.96
57594;BME280;43423;46.510;6.686;2023-09-30T08:08:03;97316.91;;;19.65;66.53
57594;BME280;43423;46.510;6.686;2023-09-30T08:10:30;97334.22;;;19.58;66.72
57594;BME280;43423;46.510;6.686;2023-09-30T08:12:57;97333.44;;;19.63;67.14
57594;BME280;43423;46.510;6.686;2023-09-30T08:15:24;97330.16;;;19.89;67.34
57594;BME280;43423;46.510;6.686;2023-09-30T08:17:50;97333.00;;;20.44;63.84
57594;BME280;43423;46.510;6.686;2023-09-30T08:20:16;97322.38;;;20.36;65.38
57594;BME280;43423;46.510;6.686;2023-09-30T08:22:41;97328.31;;;20.27;63.33
57594;BME280;43423;46.510;6.686;2023-09-30T08:25:08;97327.38;;;20.19;65.13
57594;BME280;43423;46.510;6.686;2023-09-30T08:27:33;97332.63;;;20.53;61.85
57594;BME280;43423;46.510;6.686;2023-09-30T08:29:59;97325.28;;;20.74;62.57
57594;BME280;43423;46.510;6.686;2023-09-30T08:32:25;97336.22;;;21.53;61.80
57594;BME280;43423;46.510;6.686;2023-09-30T08:34:51;97324.47;;;21.73;59.15
57594;BME280;43423;46.510;6.686;2023-09-30T08:37:16;97333.34;;;22.36;58.00
57594;BME280;43423;46.510;6.686;2023-09-30T08:39:42;97331.25;;;24.26;52.39
57594;BME280;43423;46.510;6.686;2023-09-30T08:42:10;97326.31;;;23.09;52.68
57594;BME280;43423;46.510;6.686;2023-09-30T08:44:38;97335.50;;;22.56;55.25
57594;BME280;43423;46.510;6.686;2023-09-30T08:47:06;97323.53;;;22.56;55.44
57594;BME280;43423;46.510;6.686;2023-09-30T08:49:38;97320.41;;;22.46;57.78
57594;BME280;43423;46.510;6.686;2023-09-30T08:52:06;97316.41;;;23.08;57.39
57594;BME280;43423;46.510;6.686;2023-09-30T08:54:34;97326.59;;;23.32;56.77
57594;BME280;43423;46.510;6.686;2023-09-30T08:57:00;97304.84;;;23.46;53.70
57594;BME280;43423;46.510;6.686;2023-09-30T08:59:27;97313.44;;;23.61;55.36
57594;BME280;43423;46.510;6.686;2023-09-30T09:01:53;97308.13;;;23.71;55.50
57594;BME280;43423;46.510;6.686;2023-09-30T09:04:18;97305.25;;;23.84;55.11
57594;BME280;43423;46.510;6.686;2023-09-30T09:06:44;97303.13;;;23.98;53.19
57594;BME280;43423;46.510;6.686;2023-09-30T09:09:16;97317.97;;;24.27;54.97
57594;BME280;43423;46.510;6.686;2023-09-30T09:11:47;97313.03;;;24.19;52.65
57594;BME280;43423;46.510;6.686;2023-09-30T09:14:14;97314.94;;;24.24;52.29
57594;BME280;43423;46.510;6.686;2023-09-30T09:16:55;97324.56;;;23.53;53.11
57594;BME280;43423;46.510;6.686;2023-09-30T09:19:21;97313.97;;;23.59;54.40
57594;BME280;43423;46.510;6.686;2023-09-30T09:21:57;97306.94;;;23.66;54.31
57594;BME280;43423;46.510;6.686;2023-09-30T09:24:31;97306.53;;;23.83;54.12
57594;BME280;43423;46.510;6.686;2023-09-30T09:29:30;97307.63;;;24.01;53.84
57594;BME280;43423;46.510;6.686;2023-09-30T09:32:16;97303.19;;;23.63;52.60
57594;BME280;43423;46.510;6.686;2023-09-30T09:34:44;97303.50;;;22.92;55.10
57594;BME280;43423;46.510;6.686;2023-09-30T09:39:55;97308.88;;;23.37;53.91
57594;BME280;43423;46.510;6.686;2023-09-30T09:42:29;97305.28;;;23.50;55.45
57594;BME280;43423;46.510;6.686;2023-09-30T09:45:18;97306.50;;;23.41;55.67
57594;BME280;43423;46.510;6.686;2023-09-30T09:48:06;97309.84;;;23.39;53.82
57594;BME280;43423;46.510;6.686;2023-09-30T09:50:32;97302.22;;;23.27;55.47
57594;BME280;43423;46.510;6.686;2023-09-30T09:52:58;97301.59;;;23.55;54.05
57594;BME280;43423;46.510;6.686;2023-09-30T09:55:27;97303.75;;;23.49;53.18
57594;BME280;43423;46.510;6.686;2023-09-30T09:57:53;97298.47;;;23.45;55.48
57594;BME280;43423;46.510;6.686;2023-09-30T10:00:24;97296.69;;;23.00;56.79
57594;BME280;43423;46.510;6.686;2023-09-30T10:02:50;97302.41;;;23.29;55.14
57594;BME280;43423;46.510;6.686;2023-09-30T10:05:18;97298.16;;;23.15;55.82
57594;BME280;43423;46.510;6.686;2023-09-30T10:10:25;97298.53;;;23.32;55.71
57594;BME280;43423;46.510;6.686;2023-09-30T10:12:51;97288.66;;;23.18;56.27
57594;BME280;43423;46.510;6.686;2023-09-30T10:18:04;97298.78;;;23.55;55.52
57594;BME280;43423;46.510;6.686;2023-09-30T10:20:33;97297.06;;;23.18;56.41
57594;BME280;43423;46.510;6.686;2023-09-30T10:23:25;97301.59;;;23.55;56.77
57594;BME280;43423;46.510;6.686;2023-09-30T10:28:46;97288.44;;;23.91;53.81
57594;BME280;43423;46.510;6.686;2023-09-30T10:31:22;97294.56;;;23.82;53.04
57594;BME280;43423;46.510;6.686;2023-09-30T10:36:28;97287.44;;;24.02;55.33
57594;BME280;43423;46.510;6.686;2023-09-30T10:38:54;97293.19;;;23.76;53.65
57594;BME280;43423;46.510;6.686;2023-09-30T10:46:48;97271.22;;;23.32;56.11
57594;BME280;43423;46.510;6.686;2023-09-30T10:49:35;97267.03;;;23.81;54.85
57594;BME280;43423;46.510;6.686;2023-09-30T10:52:23;97261.91;;;23.17;56.12
57594;BME280;43423;46.510;6.686;2023-09-30T10:54:49;97265.38;;;23.64;55.45
57594;BME280;43423;46.510;6.686;2023-09-30T10:57:26;97259.34;;;23.60;56.17
57594;BME280;43423;46.510;6.686;2023-09-30T11:00:12;97267.22;;;24.04;55.50
57594;BME280;43423;46.510;6.686;2023-09-30T11:02:50;97270.06;;;24.11;51.81
57594;BME280;43423;46.510;6.686;2023-09-30T11:05:17;97277.44;;;23.73;53.23
57594;BME280;43423;46.510;6.686;2023-09-30T11:07:45;97277.84;;;23.77;53.99
57594;BME280;43423;46.510;6.686;2023-09-30T11:10:16;97263.59;;;23.95;55.77
57594;BME280;43423;46.510;6.686;2023-09-30T11:12:58;97257.00;;;23.93;54.71
57594;BME280;43423;46.510;6.686;2023-09-30T11:15:24;97256.03;;;24.11;54.30
57594;BME280;43423;46.510;6.686;2023-09-30T11:17:52;97264.16;;;24.22;51.56
57594;BME280;43423;46.510;6.686;2023-09-30T11:20:17;97265.09;;;24.25;51.20
57594;BME280;43423;46.510;6.686;2023-09-30T11:22:45;97258.03;;;24.32;53.02
57594;BME280;43423;46.510;6.686;2023-09-30T11:25:20;97264.34;;;24.24;53.06
57594;BME280;43423;46.510;6.686;2023-09-30T11:27:47;97265.50;;;24.29;54.18
57594;BME280;43423;46.510;6.686;2023-09-30T11:30:13;97263.09;;;24.05;55.47
57594;BME280;43423;46.510;6.686;2023-09-30T11:32:39;97261.94;;;24.29;53.03
57594;BME280;43423;46.510;6.686;2023-09-30T11:35:22;97265.22;;;24.40;54.57
57594;BME280;43423;46.510;6.686;2023-09-30T11:37:48;97253.78;;;24.38;51.08
57594;BME280;43423;46.510;6.686;2023-09-30T11:40:14;97260.84;;;24.60;53.15
57594;BME280;43423;46.510;6.686;2023-09-30T11:42:39;97247.69;;;24.27;50.63
57594;BME280;43423;46.510;6.686;2023-09-30T11:45:25;97245.28;;;24.59;52.49
57594;BME280;43423;46.510;6.686;2023-09-30T11:47:51;97247.38;;;24.66;51.78
57594;BME280;43423;46.510;6.686;2023-09-30T11:50:17;97243.72;;;24.94;51.94
57594;BME280;43423;46.510;6.686;2023-09-30T11:52:44;97247.19;;;25.08;50.49
57594;BME280;43423;46.510;6.686;2023-09-30T11:55:12;97240.47;;;25.26;48.93
57594;BME280;43423;46.510;6.686;2023-09-30T11:57:38;97237.81;;;24.69;51.60
57594;BME280;43423;46.510;6.686;2023-09-30T12:00:04;97233.38;;;24.82;48.08
57594;BME280;43423;46.510;6.686;2023-09-30T12:02:38;97248.09;;;25.03;47.83
57594;BME280;43423;46.510;6.686;2023-09-30T12:05:06;97241.44;;;24.85;49.32
57594;BME280;43423;46.510;6.686;2023-09-30T12:07:38;97239.41;;;24.93;49.47
57594;BME280;43423;46.510;6.686;2023-09-30T12:10:07;97240.31;;;24.81;48.30
57594;BME280;43423;46.510;6.686;2023-09-30T12:12:32;97238.28;;;24.89;47.55
57594;BME280;43423;46.510;6.686;2023-09-30T12:14:58;97223.88;;;25.00;47.69
57594;BME280;43423;46.510;6.686;2023-09-30T12:17:23;97241.06;;;25.32;47.38
57594;BME280;43423;46.510;6.686;2023-09-30T12:19:50;97238.41;;;25.27;49.83
57594;BME280;43423;46.510;6.686;2023-09-30T12:22:16;97237.09;;;25.20;47.30
57594;BME280;43423;46.510;6.686;2023-09-30T12:24:41;97245.19;;;25.39;47.29
57594;BME280;43423;46.510;6.686;2023-09-30T12:27:07;97239.03;;;25.56;47.59
57594;BME280;43423;46.510;6.686;2023-09-30T12:29:32;97233.53;;;25.27;49.29
57594;BME280;43423;46.510;6.686;2023-09-30T12:31:58;97237.44;;;25.17;50.57
57594;BME280;43423;46.510;6.686;2023-09-30T12:34:23;97244.81;;;25.50;49.13
57594;BME280;43423;46.510;6.686;2023-09-30T12:36:51;97235.91;;;24.28;51.53
57594;BME280;43423;46.510;6.686;2023-09-30T12:39:16;97234.34;;;24.19;50.21
57594;BME280;43423;46.510;6.686;2023-09-30T12:41:43;97238.38;;;24.03;49.72
57594;BME280;43423;46.510;6.686;2023-09-30T12:44:10;97235.22;;;24.79;49.02
57594;BME280;43423;46.510;6.686;2023-09-30T12:46:36;97236.31;;;25.04;48.41
57594;BME280;43423;46.510;6.686;2023-09-30T12:52:47;97226.03;;;24.78;49.06
57594;BME280;43423;46.510;6.686;2023-09-30T12:55:12;97225.28;;;24.06;52.46
57594;BME280;43423;46.510;6.686;2023-09-30T12:57:38;97216.16;;;24.41;53.27
57594;BME280;43423;46.510;6.686;2023-09-30T13:00:05;97229.66;;;24.43;52.06
57594;BME280;43423;46.510;6.686;2023-09-30T13:02:34;97221.56;;;24.83;49.97
57594;BME280;43423;46.510;6.686;2023-09-30T13:05:00;97212.78;;;24.94;50.39
57594;BME280;43423;46.510;6.686;2023-09-30T13:07:25;97215.81;;;24.96;49.53
57594;BME280;43423;46.510;6.686;2023-09-30T13:09:51;97208.47;;;24.93;49.48
57594;BME280;43423;46.510;6.686;2023-09-30T13:12:17;97198.59;;;24.56;51.26
57594;BME280;43423;46.510;6.686;2023-09-30T13:14:42;97200.94;;;24.81;52.33
57594;BME280;43423;46.510;6.686;2023-09-30T13:17:08;97206.34;;;24.78;50.39
57594;BME280;43423;46.510;6.686;2023-09-30T13:19:33;97208.78;;;24.74;50.52
57594;BME280;43423;46.510;6.686;2023-09-30T13:21:59;97203.09;;;25.03;50.10
57594;BME280;43423;46.510;6.686;2023-09-30T13:24:24;97202.03;;;24.70;51.39
57594;BME280;43423;46.510;6.686;2023-09-30T13:26:52;97209.09;;;25.07;49.34